sensor_id;sensor_type;location;lat;lon;timestamp;P1;durP1;ratioP1;P2;durP2;ratioP2
23187;SDS011;11762;59.878;17.686;2023-01-01T00:00:14;15.57;;;5.87;;
23187;SDS011;11762;59.878;17.686;2023-01-01T00:02:42;20.00;;;5.83;;
23187;SDS011;11762;59.878;17.686;2023-01-01T00:05:09;15.80;;;5.30;;
23187;SDS011;11762;59.878;17.686;2023-01-01T00:07:36;15.77;;;4.70;;
23187;SDS011;11762;59.878;17.686;2023-01-01T00:10:04;16.17;;;4.47;;
23187;SDS011;11762;59.878;17.686;2023-01-01T00:12:49;15.27;;;5.17;;
23187;SDS011;11762;59.878;17.686;2023-01-01T00:15:16;14.77;;;4.93;;
23187;SDS011;11762;59.878;17.686;2023-01-01T00:17:45;15.07;;;4.63;;
23187;SDS011;11762;59.878;17.686;2023-01-01T00:20:12;12.93;;;6.07;;
23187;SDS011;11762;59.878;17.686;2023-01-01T00:22:39;14.47;;;4.87;;
23187;SDS011;11762;59.878;17.686;2023-01-01T00:25:07;12.93;;;4.27;;
23187;SDS011;11762;59.878;17.686;2023-01-01T00:27:35;16.03;;;4.30;;
23187;SDS011;11762;59.878;17.686;2023-01-01T00:30:02;14.87;;;4.67;;
23187;SDS011;11762;59.878;17.686;2023-01-01T00:32:30;13.30;;;5.07;;
23187;SDS011;11762;59.878;17.686;2023-01-01T00:34:59;12.07;;;4.90;;
23187;SDS011;11762;59.878;17.686;2023-01-01T00:37:26;10.83;;;4.90;;
23187;SDS011;11762;59.878;17.686;2023-01-01T00:39:53;15.80;;;4.90;;
23187;SDS011;11762;59.878;17.686;2023-01-01T00:42:20;14.27;;;4.77;;
23187;SDS011;11762;59.878;17.686;2023-01-01T00:44:47;16.47;;;5.80;;
23187;SDS011;11762;59.878;17.686;2023-01-01T00:47:14;15.27;;;5.03;;
23187;SDS011;11762;59.878;17.686;2023-01-01T00:49:41;12.37;;;4.20;;
23187;SDS011;11762;59.878;17.686;2023-01-01T00:52:09;14.63;;;4.00;;
23187;SDS011;11762;59.878;17.686;2023-01-01T00:54:36;12.13;;;3.70;;
23187;SDS011;11762;59.878;17.686;2023-01-01T00:57:04;9.40;;;3.43;;
23187;SDS011;11762;59.878;17.686;2023-01-01T00:59:31;7.67;;;3.67;;
23187;SDS011;11762;59.878;17.686;2023-01-01T01:01:58;12.60;;;4.37;;
23187;SDS011;11762;59.878;17.686;2023-01-01T01:04:25;14.03;;;3.77;;
23187;SDS011;11762;59.878;17.686;2023-01-01T01:06:52;16.03;;;4.40;;
23187;SDS011;11762;59.878;17.686;2023-01-01T01:09:20;11.73;;;5.47;;
23187;SDS011;11762;59.878;17.686;2023-01-01T01:11:48;22.13;;;4.77;;
23187;SDS011;11762;59.878;17.686;2023-01-01T01:14:15;13.97;;;3.93;;
23187;SDS011;11762;59.878;17.686;2023-01-01T01:16:42;12.87;;;4.57;;
23187;SDS011;11762;59.878;17.686;2023-01-01T01:19:10;7.57;;;3.57;;
23187;SDS011;11762;59.878;17.686;2023-01-01T01:21:40;9.17;;;3.30;;
23187;SDS011;11762;59.878;17.686;2023-01-01T01:24:08;12.47;;;3.47;;
23187;SDS011;11762;59.878;17.686;2023-01-01T01:26:37;9.93;;;3.20;;
23187;SDS011;11762;59.878;17.686;2023-01-01T01:29:04;7.70;;;2.87;;
23187;SDS011;11762;59.878;17.686;2023-01-01T01:31:31;9.07;;;2.90;;
23187;SDS011;11762;59.878;17.686;2023-01-01T01:33:59;5.50;;;2.13;;
23187;SDS011;11762;59.878;17.686;2023-01-01T01:36:27;7.67;;;2.43;;
23187;SDS011;11762;59.878;17.686;2023-01-01T01:38:54;17.30;;;2.47;;
23187;SDS011;11762;59.878;17.686;2023-01-01T01:41:22;15.60;;;2.43;;
23187;SDS011;11762;59.878;17.686;2023-01-01T01:43:54;7.77;;;2.03;;
23187;SDS011;11762;59.878;17.686;2023-01-01T01:46:24;7.60;;;2.03;;
23187;SDS011;11762;59.878;17.686;2023-01-01T01:48:57;10.33;;;2.33;;
23187;SDS011;11762;59.878;17.686;2023-01-01T01:51:29;8.10;;;2.47;;
23187;SDS011;11762;59.878;17.686;2023-01-01T01:54:00;6.37;;;2.33;;
23187;SDS011;11762;59.878;17.686;2023-01-01T01:56:31;9.17;;;2.60;;
23187;SDS011;11762;59.878;17.686;2023-01-01T01:59:06;8.70;;;1.97;;
23187;SDS011;11762;59.878;17.686;2023-01-01T02:01:34;10.47;;;2.43;;
23187;SDS011;11762;59.878;17.686;2023-01-01T02:04:01;7.90;;;1.97;;
23187;SDS011;11762;59.878;17.686;2023-01-01T02:06:30;10.57;;;2.87;;
23187;SDS011;11762;59.878;17.686;2023-01-01T02:08:59;10.43;;;2.03;;
23187;SDS011;11762;59.878;17.686;2023-01-01T02:11:29;5.90;;;1.60;;
23187;SDS011;11762;59.878;17.686;2023-01-01T02:13:56;9.13;;;1.77;;
23187;SDS011;11762;59.878;17.686;2023-01-01T02:16:28;9.37;;;1.70;;
23187;SDS011;11762;59.878;17.686;2023-01-01T02:19:03;11.67;;;1.93;;
23187;SDS011;11762;59.878;17.686;2023-01-01T02:21:38;11.90;;;1.90;;
23187;SDS011;11762;59.878;17.686;2023-01-01T02:24:25;5.93;;;1.67;;
23187;SDS011;11762;59.878;17.686;2023-01-01T02:27:05;3.80;;;1.20;;
23187;SDS011;11762;59.878;17.686;2023-01-01T02:29:44;5.50;;;1.77;;
23187;SDS011;11762;59.878;17.686;2023-01-01T02:32:16;10.60;;;2.20;;
23187;SDS011;11762;59.878;17.686;2023-01-01T02:34:48;8.43;;;1.87;;
23187;SDS011;11762;59.878;17.686;2023-01-01T02:37:20;9.03;;;1.40;;
23187;SDS011;11762;59.878;17.686;2023-01-01T02:39:50;8.63;;;1.93;;
23187;SDS011;11762;59.878;17.686;2023-01-01T02:42:20;9.80;;;1.80;;
23187;SDS011;11762;59.878;17.686;2023-01-01T02:44:53;7.00;;;1.90;;
23187;SDS011;11762;59.878;17.686;2023-01-01T02:47:23;10.83;;;1.93;;
23187;SDS011;11762;59.878;17.686;2023-01-01T02:49:53;9.13;;;1.57;;
23187;SDS011;11762;59.878;17.686;2023-01-01T02:52:31;10.83;;;2.13;;
23187;SDS011;11762;59.878;17.686;2023-01-01T02:55:15;7.20;;;1.40;;
23187;SDS011;11762;59.878;17.686;2023-01-01T02:57:52;10.47;;;1.70;;
23187;SDS011;11762;59.878;17.686;2023-01-01T03:00:48;6.90;;;1.37;;
23187;SDS011;11762;59.878;17.686;2023-01-01T03:03:17;8.30;;;1.70;;
23187;SDS011;11762;59.878;17.686;2023-01-01T03:05:52;6.87;;;1.47;;
23187;SDS011;11762;59.878;17.686;2023-01-01T03:08:45;4.37;;;1.30;;
23187;SDS011;11762;59.878;17.686;2023-01-01T03:11:19;8.27;;;1.87;;
23187;SDS011;11762;59.878;17.686;2023-01-01T03:13:50;6.47;;;1.50;;
23187;SDS011;11762;59.878;17.686;2023-01-01T03:16:28;8.67;;;1.40;;
23187;SDS011;11762;59.878;17.686;2023-01-01T03:18:59;6.17;;;1.50;;
23187;SDS011;11762;59.878;17.686;2023-01-01T03:21:40;5.50;;;1.60;;
23187;SDS011;11762;59.878;17.686;2023-01-01T03:24:11;9.27;;;1.37;;
23187;SDS011;11762;59.878;17.686;2023-01-01T03:26:42;8.30;;;1.70;;
23187;SDS011;11762;59.878;17.686;2023-01-01T03:29:13;8.07;;;1.70;;
23187;SDS011;11762;59.878;17.686;2023-01-01T03:31:42;8.70;;;1.50;;
23187;SDS011;11762;59.878;17.686;2023-01-01T03:34:13;8.13;;;1.40;;
23187;SDS011;11762;59.878;17.686;2023-01-01T03:36:45;6.23;;;1.50;;
23187;SDS011;11762;59.878;17.686;2023-01-01T03:39:17;4.63;;;1.90;;
23187;SDS011;11762;59.878;17.686;2023-01-01T03:41:48;6.47;;;1.77;;
23187;SDS011;11762;59.878;17.686;2023-01-01T03:44:22;5.20;;;1.37;;
23187;SDS011;11762;59.878;17.686;2023-01-01T03:46:55;5.67;;;1.80;;
23187;SDS011;11762;59.878;17.686;2023-01-01T03:49:23;9.73;;;1.57;;
23187;SDS011;11762;59.878;17.686;2023-01-01T03:51:54;8.37;;;1.73;;
23187;SDS011;11762;59.878;17.686;2023-01-01T03:54:31;12.40;;;2.40;;
23187;SDS011;11762;59.878;17.686;2023-01-01T03:57:05;12.17;;;1.87;;
23187;SDS011;11762;59.878;17.686;2023-01-01T03:59:39;13.80;;;2.80;;
23187;SDS011;11762;59.878;17.686;2023-01-01T04:02:11;9.63;;;1.90;;
23187;SDS011;11762;59.878;17.686;2023-01-01T04:04:42;9.97;;;2.40;;
23187;SDS011;11762;59.878;17.686;2023-01-01T04:07:09;7.00;;;1.70;;
23187;SDS011;11762;59.878;17.686;2023-01-01T04:09:36;5.83;;;1.63;;
23187;SDS011;11762;59.878;17.686;2023-01-01T04:12:07;9.27;;;2.80;;
23187;SDS011;11762;59.878;17.686;2023-01-01T04:14:36;9.33;;;1.93;;
23187;SDS011;11762;59.878;17.686;2023-01-01T04:17:05;7.30;;;2.17;;
23187;SDS011;11762;59.878;17.686;2023-01-01T04:19:35;6.57;;;2.33;;
23187;SDS011;11762;59.878;17.686;2023-01-01T04:22:02;12.63;;;2.07;;
23187;SDS011;11762;59.878;17.686;2023-01-01T04:24:30;5.90;;;1.73;;
23187;SDS011;11762;59.878;17.686;2023-01-01T04:26:57;11.37;;;2.03;;
23187;SDS011;11762;59.878;17.686;2023-01-01T04:29:24;8.07;;;1.53;;
23187;SDS011;11762;59.878;17.686;2023-01-01T04:31:51;15.80;;;2.33;;
23187;SDS011;11762;59.878;17.686;2023-01-01T04:34:18;13.50;;;2.10;;
23187;SDS011;11762;59.878;17.686;2023-01-01T04:36:46;3.43;;;1.50;;
23187;SDS011;11762;59.878;17.686;2023-01-01T04:39:13;4.53;;;1.77;;
23187;SDS011;11762;59.878;17.686;2023-01-01T04:41:40;6.70;;;2.03;;
23187;SDS011;11762;59.878;17.686;2023-01-01T04:44:07;7.13;;;1.80;;
23187;SDS011;11762;59.878;17.686;2023-01-01T04:46:34;7.07;;;1.67;;
23187;SDS011;11762;59.878;17.686;2023-01-01T04:49:02;15.27;;;2.43;;
23187;SDS011;11762;59.878;17.686;2023-01-01T04:51:29;11.33;;;2.17;;
23187;SDS011;11762;59.878;17.686;2023-01-01T04:53:58;8.63;;;2.23;;
23187;SDS011;11762;59.878;17.686;2023-01-01T04:56:26;7.10;;;1.93;;
23187;SDS011;11762;59.878;17.686;2023-01-01T04:58:53;9.37;;;2.17;;
23187;SDS011;11762;59.878;17.686;2023-01-01T05:01:22;15.97;;;2.63;;
23187;SDS011;11762;59.878;17.686;2023-01-01T05:03:51;6.37;;;2.30;;
23187;SDS011;11762;59.878;17.686;2023-01-01T05:06:18;7.47;;;2.10;;
23187;SDS011;11762;59.878;17.686;2023-01-01T05:08:46;6.60;;;1.70;;
23187;SDS011;11762;59.878;17.686;2023-01-01T05:11:18;9.33;;;2.60;;
23187;SDS011;11762;59.878;17.686;2023-01-01T05:13:46;8.50;;;2.00;;
23187;SDS011;11762;59.878;17.686;2023-01-01T05:16:17;5.23;;;1.73;;
23187;SDS011;11762;59.878;17.686;2023-01-01T05:18:45;4.23;;;1.57;;
23187;SDS011;11762;59.878;17.686;2023-01-01T05:21:14;8.73;;;2.20;;
23187;SDS011;11762;59.878;17.686;2023-01-01T05:23:42;7.13;;;2.07;;
23187;SDS011;11762;59.878;17.686;2023-01-01T05:26:10;5.83;;;1.53;;
23187;SDS011;11762;59.878;17.686;2023-01-01T05:28:39;8.07;;;2.27;;
23187;SDS011;11762;59.878;17.686;2023-01-01T05:31:07;9.33;;;2.33;;
23187;SDS011;11762;59.878;17.686;2023-01-01T05:33:35;9.70;;;1.97;;
23187;SDS011;11762;59.878;17.686;2023-01-01T05:36:03;10.13;;;2.10;;
23187;SDS011;11762;59.878;17.686;2023-01-01T05:38:31;8.23;;;2.13;;
23187;SDS011;11762;59.878;17.686;2023-01-01T05:40:58;8.80;;;1.97;;
23187;SDS011;11762;59.878;17.686;2023-01-01T05:43:30;14.17;;;2.70;;
23187;SDS011;11762;59.878;17.686;2023-01-01T05:46:01;5.20;;;1.80;;
23187;SDS011;11762;59.878;17.686;2023-01-01T05:48:30;5.33;;;1.87;;
23187;SDS011;11762;59.878;17.686;2023-01-01T05:51:01;4.37;;;1.50;;
23187;SDS011;11762;59.878;17.686;2023-01-01T05:53:28;7.17;;;1.83;;
23187;SDS011;11762;59.878;17.686;2023-01-01T05:55:56;8.53;;;2.60;;
23187;SDS011;11762;59.878;17.686;2023-01-01T05:58:24;5.73;;;1.83;;
23187;SDS011;11762;59.878;17.686;2023-01-01T06:00:51;10.23;;;1.93;;
23187;SDS011;11762;59.878;17.686;2023-01-01T06:03:19;9.47;;;2.37;;
23187;SDS011;11762;59.878;17.686;2023-01-01T06:05:47;9.30;;;2.00;;
23187;SDS011;11762;59.878;17.686;2023-01-01T06:08:14;8.47;;;2.10;;
23187;SDS011;11762;59.878;17.686;2023-01-01T06:10:41;7.60;;;1.93;;
23187;SDS011;11762;59.878;17.686;2023-01-01T06:13:08;4.27;;;1.53;;
23187;SDS011;11762;59.878;17.686;2023-01-01T06:15:35;8.67;;;2.23;;
23187;SDS011;11762;59.878;17.686;2023-01-01T06:18:02;7.00;;;1.90;;
23187;SDS011;11762;59.878;17.686;2023-01-01T06:20:31;10.27;;;1.90;;
23187;SDS011;11762;59.878;17.686;2023-01-01T06:22:58;4.53;;;1.80;;
23187;SDS011;11762;59.878;17.686;2023-01-01T06:25:25;6.27;;;1.90;;
23187;SDS011;11762;59.878;17.686;2023-01-01T06:27:52;5.70;;;1.60;;
23187;SDS011;11762;59.878;17.686;2023-01-01T06:30:19;7.97;;;2.20;;
23187;SDS011;11762;59.878;17.686;2023-01-01T06:32:46;8.70;;;2.00;;
23187;SDS011;11762;59.878;17.686;2023-01-01T06:35:13;8.97;;;1.83;;
23187;SDS011;11762;59.878;17.686;2023-01-01T06:37:41;6.57;;;1.70;;
23187;SDS011;11762;59.878;17.686;2023-01-01T06:40:08;6.80;;;3.10;;
23187;SDS011;11762;59.878;17.686;2023-01-01T06:42:36;5.13;;;1.90;;
23187;SDS011;11762;59.878;17.686;2023-01-01T06:45:03;9.73;;;2.07;;
23187;SDS011;11762;59.878;17.686;2023-01-01T06:47:32;5.87;;;1.70;;
23187;SDS011;11762;59.878;17.686;2023-01-01T06:50:00;8.90;;;2.10;;
23187;SDS011;11762;59.878;17.686;2023-01-01T06:52:27;3.63;;;1.77;;
23187;SDS011;11762;59.878;17.686;2023-01-01T06:54:55;7.83;;;2.07;;
23187;SDS011;11762;59.878;17.686;2023-01-01T06:57:23;5.93;;;1.97;;
23187;SDS011;11762;59.878;17.686;2023-01-01T06:59:50;10.53;;;2.30;;
23187;SDS011;11762;59.878;17.686;2023-01-01T07:02:17;4.87;;;1.70;;
23187;SDS011;11762;59.878;17.686;2023-01-01T07:04:44;10.90;;;1.83;;
23187;SDS011;11762;59.878;17.686;2023-01-01T07:07:11;9.33;;;2.13;;
23187;SDS011;11762;59.878;17.686;2023-01-01T07:09:38;4.07;;;1.83;;
23187;SDS011;11762;59.878;17.686;2023-01-01T07:12:06;4.63;;;2.17;;
23187;SDS011;11762;59.878;17.686;2023-01-01T07:14:33;4.27;;;1.80;;
23187;SDS011;11762;59.878;17.686;2023-01-01T07:17:00;5.63;;;1.90;;
23187;SDS011;11762;59.878;17.686;2023-01-01T07:19:27;6.77;;;1.70;;
23187;SDS011;11762;59.878;17.686;2023-01-01T07:21:54;7.30;;;1.63;;
23187;SDS011;11762;59.878;17.686;2023-01-01T07:24:21;4.53;;;2.07;;
23187;SDS011;11762;59.878;17.686;2023-01-01T07:26:48;9.97;;;2.30;;
23187;SDS011;11762;59.878;17.686;2023-01-01T07:29:17;5.80;;;1.80;;
23187;SDS011;11762;59.878;17.686;2023-01-01T07:31:44;10.27;;;1.90;;
23187;SDS011;11762;59.878;17.686;2023-01-01T07:34:12;10.00;;;2.13;;
23187;SDS011;11762;59.878;17.686;2023-01-01T07:36:40;7.20;;;1.80;;
23187;SDS011;11762;59.878;17.686;2023-01-01T07:39:08;4.90;;;1.73;;
23187;SDS011;11762;59.878;17.686;2023-01-01T07:41:35;6.60;;;1.50;;
23187;SDS011;11762;59.878;17.686;2023-01-01T07:44:02;6.87;;;1.43;;
23187;SDS011;11762;59.878;17.686;2023-01-01T07:46:31;6.53;;;1.60;;
23187;SDS011;11762;59.878;17.686;2023-01-01T07:49:00;7.87;;;1.87;;
23187;SDS011;11762;59.878;17.686;2023-01-01T07:51:27;7.90;;;2.30;;
23187;SDS011;11762;59.878;17.686;2023-01-01T07:53:54;4.10;;;1.47;;
23187;SDS011;11762;59.878;17.686;2023-01-01T07:56:22;8.83;;;2.00;;
23187;SDS011;11762;59.878;17.686;2023-01-01T07:58:49;3.13;;;1.10;;
23187;SDS011;11762;59.878;17.686;2023-01-01T08:01:16;9.20;;;1.87;;
23187;SDS011;11762;59.878;17.686;2023-01-01T08:03:44;5.83;;;1.60;;
23187;SDS011;11762;59.878;17.686;2023-01-01T08:06:16;5.73;;;1.60;;
23187;SDS011;11762;59.878;17.686;2023-01-01T08:08:43;8.93;;;2.00;;
23187;SDS011;11762;59.878;17.686;2023-01-01T08:11:10;6.53;;;1.40;;
23187;SDS011;11762;59.878;17.686;2023-01-01T08:13:37;9.90;;;1.53;;
23187;SDS011;11762;59.878;17.686;2023-01-01T08:16:05;5.80;;;1.70;;
23187;SDS011;11762;59.878;17.686;2023-01-01T08:18:32;3.77;;;1.10;;
23187;SDS011;11762;59.878;17.686;2023-01-01T08:21:00;4.63;;;1.57;;
23187;SDS011;11762;59.878;17.686;2023-01-01T08:23:28;3.87;;;1.70;;
23187;SDS011;11762;59.878;17.686;2023-01-01T08:25:57;4.37;;;1.80;;
23187;SDS011;11762;59.878;17.686;2023-01-01T08:28:25;6.13;;;1.50;;
23187;SDS011;11762;59.878;17.686;2023-01-01T08:30:53;4.77;;;0.97;;
23187;SDS011;11762;59.878;17.686;2023-01-01T08:33:20;5.93;;;1.93;;
23187;SDS011;11762;59.878;17.686;2023-01-01T08:35:49;3.97;;;1.57;;
23187;SDS011;11762;59.878;17.686;2023-01-01T08:38:17;4.53;;;1.40;;
23187;SDS011;11762;59.878;17.686;2023-01-01T08:40:44;5.27;;;1.30;;
23187;SDS011;11762;59.878;17.686;2023-01-01T08:43:12;7.97;;;1.60;;
23187;SDS011;11762;59.878;17.686;2023-01-01T08:45:39;5.30;;;1.13;;
23187;SDS011;11762;59.878;17.686;2023-01-01T08:48:06;4.03;;;1.17;;
23187;SDS011;11762;59.878;17.686;2023-01-01T08:50:33;5.73;;;1.50;;
23187;SDS011;11762;59.878;17.686;2023-01-01T08:53:00;3.80;;;1.10;;
23187;SDS011;11762;59.878;17.686;2023-01-01T08:55:28;8.37;;;1.20;;
23187;SDS011;11762;59.878;17.686;2023-01-01T08:57:55;4.10;;;1.13;;
23187;SDS011;11762;59.878;17.686;2023-01-01T09:00:22;5.37;;;1.10;;
23187;SDS011;11762;59.878;17.686;2023-01-01T09:02:49;2.57;;;1.00;;
23187;SDS011;11762;59.878;17.686;2023-01-01T09:05:17;3.57;;;0.93;;
23187;SDS011;11762;59.878;17.686;2023-01-01T09:07:44;3.30;;;1.07;;
23187;SDS011;11762;59.878;17.686;2023-01-01T09:10:10;3.60;;;1.07;;
23187;SDS011;11762;59.878;17.686;2023-01-01T09:12:39;5.80;;;1.30;;
23187;SDS011;11762;59.878;17.686;2023-01-01T09:15:08;3.90;;;1.40;;
23187;SDS011;11762;59.878;17.686;2023-01-01T09:17:39;2.20;;;1.00;;
23187;SDS011;11762;59.878;17.686;2023-01-01T09:20:07;8.00;;;1.53;;
23187;SDS011;11762;59.878;17.686;2023-01-01T09:22:34;2.27;;;1.20;;
23187;SDS011;11762;59.878;17.686;2023-01-01T09:25:01;4.90;;;1.40;;
23187;SDS011;11762;59.878;17.686;2023-01-01T09:27:28;4.47;;;1.60;;
23187;SDS011;11762;59.878;17.686;2023-01-01T09:29:57;4.03;;;1.20;;
23187;SDS011;11762;59.878;17.686;2023-01-01T09:32:24;4.77;;;1.33;;
23187;SDS011;11762;59.878;17.686;2023-01-01T09:34:51;4.40;;;1.60;;
23187;SDS011;11762;59.878;17.686;2023-01-01T09:37:18;7.10;;;1.30;;
23187;SDS011;11762;59.878;17.686;2023-01-01T09:39:45;3.77;;;1.13;;
23187;SDS011;11762;59.878;17.686;2023-01-01T09:42:26;8.30;;;1.40;;
23187;SDS011;11762;59.878;17.686;2023-01-01T09:45:07;8.53;;;2.00;;
23187;SDS011;11762;59.878;17.686;2023-01-01T09:47:43;6.77;;;1.20;;
23187;SDS011;11762;59.878;17.686;2023-01-01T09:50:12;9.47;;;1.20;;
23187;SDS011;11762;59.878;17.686;2023-01-01T09:52:43;4.03;;;1.50;;
23187;SDS011;11762;59.878;17.686;2023-01-01T09:55:17;6.57;;;1.20;;
23187;SDS011;11762;59.878;17.686;2023-01-01T09:57:50;4.87;;;1.30;;
23187;SDS011;11762;59.878;17.686;2023-01-01T10:00:21;8.10;;;1.47;;
23187;SDS011;11762;59.878;17.686;2023-01-01T10:03:01;3.23;;;1.07;;
23187;SDS011;11762;59.878;17.686;2023-01-01T10:05:39;4.37;;;1.27;;
23187;SDS011;11762;59.878;17.686;2023-01-01T10:08:19;4.47;;;1.30;;
23187;SDS011;11762;59.878;17.686;2023-01-01T10:10:56;7.00;;;1.27;;
23187;SDS011;11762;59.878;17.686;2023-01-01T10:13:31;4.67;;;1.20;;
23187;SDS011;11762;59.878;17.686;2023-01-01T10:16:07;6.67;;;1.20;;
23187;SDS011;11762;59.878;17.686;2023-01-01T10:18:38;6.67;;;1.37;;
23187;SDS011;11762;59.878;17.686;2023-01-01T10:21:08;6.40;;;1.10;;
23187;SDS011;11762;59.878;17.686;2023-01-01T10:23:40;8.03;;;1.50;;
23187;SDS011;11762;59.878;17.686;2023-01-01T10:26:10;4.60;;;1.37;;
23187;SDS011;11762;59.878;17.686;2023-01-01T10:28:41;5.90;;;1.57;;
23187;SDS011;11762;59.878;17.686;2023-01-01T10:31:16;8.20;;;1.23;;
23187;SDS011;11762;59.878;17.686;2023-01-01T10:33:45;8.40;;;1.60;;
23187;SDS011;11762;59.878;17.686;2023-01-01T10:36:13;4.83;;;1.20;;
23187;SDS011;11762;59.878;17.686;2023-01-01T10:38:42;5.17;;;1.70;;
23187;SDS011;11762;59.878;17.686;2023-01-01T10:41:09;5.00;;;1.47;;
23187;SDS011;11762;59.878;17.686;2023-01-01T10:43:37;4.93;;;1.40;;
23187;SDS011;11762;59.878;17.686;2023-01-01T10:46:05;2.57;;;1.27;;
23187;SDS011;11762;59.878;17.686;2023-01-01T10:48:33;5.90;;;1.50;;
23187;SDS011;11762;59.878;17.686;2023-01-01T10:51:01;5.70;;;1.10;;
23187;SDS011;11762;59.878;17.686;2023-01-01T10:53:30;7.80;;;1.30;;
23187;SDS011;11762;59.878;17.686;2023-01-01T10:56:01;3.70;;;1.30;;
23187;SDS011;11762;59.878;17.686;2023-01-01T10:58:35;7.20;;;1.10;;
23187;SDS011;11762;59.878;17.686;2023-01-01T11:01:06;5.03;;;1.30;;
23187;SDS011;11762;59.878;17.686;2023-01-01T11:03:36;3.67;;;1.10;;
23187;SDS011;11762;59.878;17.686;2023-01-01T11:06:04;3.23;;;1.17;;
23187;SDS011;11762;59.878;17.686;2023-01-01T11:08:39;7.57;;;1.30;;
23187;SDS011;11762;59.878;17.686;2023-01-01T11:11:17;4.33;;;1.00;;
23187;SDS011;11762;59.878;17.686;2023-01-01T11:13:48;4.03;;;1.30;;
23187;SDS011;11762;59.878;17.686;2023-01-01T11:16:16;3.67;;;1.30;;
23187;SDS011;11762;59.878;17.686;2023-01-01T11:18:44;18.77;;;2.20;;
23187;SDS011;11762;59.878;17.686;2023-01-01T11:21:18;3.83;;;1.20;;
23187;SDS011;11762;59.878;17.686;2023-01-01T11:24:08;6.57;;;1.43;;
23187;SDS011;11762;59.878;17.686;2023-01-01T11:26:37;3.77;;;1.30;;
23187;SDS011;11762;59.878;17.686;2023-01-01T11:29:17;6.60;;;1.30;;
23187;SDS011;11762;59.878;17.686;2023-01-01T11:31:46;4.63;;;1.17;;
23187;SDS011;11762;59.878;17.686;2023-01-01T11:34:21;4.53;;;1.47;;
23187;SDS011;11762;59.878;17.686;2023-01-01T11:37:05;6.03;;;1.33;;
23187;SDS011;11762;59.878;17.686;2023-01-01T11:39:34;6.77;;;1.50;;
23187;SDS011;11762;59.878;17.686;2023-01-01T11:42:02;2.73;;;1.00;;
23187;SDS011;11762;59.878;17.686;2023-01-01T11:44:33;9.00;;;1.57;;
23187;SDS011;11762;59.878;17.686;2023-01-01T11:47:03;6.33;;;1.30;;
23187;SDS011;11762;59.878;17.686;2023-01-01T11:49:33;5.57;;;1.40;;
23187;SDS011;11762;59.878;17.686;2023-01-01T11:52:00;6.63;;;1.67;;
23187;SDS011;11762;59.878;17.686;2023-01-01T11:55:00;4.97;;;2.23;;
23187;SDS011;11762;59.878;17.686;2023-01-01T11:57:35;3.73;;;1.30;;
23187;SDS011;11762;59.878;17.686;2023-01-01T12:00:05;6.57;;;1.40;;
23187;SDS011;11762;59.878;17.686;2023-01-01T12:02:39;4.93;;;1.30;;
23187;SDS011;11762;59.878;17.686;2023-01-01T12:05:14;9.30;;;1.30;;
23187;SDS011;11762;59.878;17.686;2023-01-01T12:07:46;8.70;;;1.63;;
23187;SDS011;11762;59.878;17.686;2023-01-01T12:10:16;5.60;;;1.47;;
23187;SDS011;11762;59.878;17.686;2023-01-01T12:12:49;2.53;;;0.97;;
23187;SDS011;11762;59.878;17.686;2023-01-01T12:15:20;8.73;;;3.03;;
23187;SDS011;11762;59.878;17.686;2023-01-01T12:17:53;11.33;;;3.63;;
23187;SDS011;11762;59.878;17.686;2023-01-01T12:20:31;9.37;;;1.90;;
23187;SDS011;11762;59.878;17.686;2023-01-01T12:23:00;6.27;;;1.70;;
23187;SDS011;11762;59.878;17.686;2023-01-01T12:25:30;8.43;;;2.43;;
23187;SDS011;11762;59.878;17.686;2023-01-01T12:28:02;13.20;;;3.10;;
23187;SDS011;11762;59.878;17.686;2023-01-01T12:30:44;6.37;;;1.50;;
23187;SDS011;11762;59.878;17.686;2023-01-01T12:33:32;4.43;;;1.60;;
23187;SDS011;11762;59.878;17.686;2023-01-01T12:36:20;5.20;;;1.53;;
23187;SDS011;11762;59.878;17.686;2023-01-01T12:42:04;5.20;;;1.53;;
23187;SDS011;11762;59.878;17.686;2023-01-01T12:44:40;5.90;;;1.67;;
23187;SDS011;11762;59.878;17.686;2023-01-01T12:47:19;4.47;;;1.53;;
23187;SDS011;11762;59.878;17.686;2023-01-01T12:50:00;3.90;;;1.53;;
23187;SDS011;11762;59.878;17.686;2023-01-01T12:52:37;4.60;;;1.73;;
23187;SDS011;11762;59.878;17.686;2023-01-01T12:55:22;3.47;;;1.50;;
23187;SDS011;11762;59.878;17.686;2023-01-01T12:58:07;4.37;;;1.70;;
23187;SDS011;11762;59.878;17.686;2023-01-01T13:00:38;4.63;;;1.50;;
23187;SDS011;11762;59.878;17.686;2023-01-01T13:03:13;5.30;;;1.23;;
23187;SDS011;11762;59.878;17.686;2023-01-01T13:05:44;8.37;;;1.63;;
23187;SDS011;11762;59.878;17.686;2023-01-01T13:08:16;5.57;;;1.60;;
23187;SDS011;11762;59.878;17.686;2023-01-01T13:10:44;5.07;;;1.63;;
23187;SDS011;11762;59.878;17.686;2023-01-01T13:13:14;5.97;;;1.73;;
23187;SDS011;11762;59.878;17.686;2023-01-01T13:15:43;6.07;;;1.23;;
23187;SDS011;11762;59.878;17.686;2023-01-01T13:18:22;3.63;;;1.57;;
23187;SDS011;11762;59.878;17.686;2023-01-01T13:20:59;3.73;;;1.20;;
23187;SDS011;11762;59.878;17.686;2023-01-01T13:23:41;3.27;;;1.10;;
23187;SDS011;11762;59.878;17.686;2023-01-01T13:26:32;5.60;;;1.20;;
23187;SDS011;11762;59.878;17.686;2023-01-01T13:32:03;4.90;;;1.03;;
23187;SDS011;11762;59.878;17.686;2023-01-01T13:34:33;3.73;;;1.00;;
23187;SDS011;11762;59.878;17.686;2023-01-01T13:37:24;10.00;;;1.40;;
23187;SDS011;11762;59.878;17.686;2023-01-01T13:39:54;6.20;;;1.10;;
23187;SDS011;11762;59.878;17.686;2023-01-01T13:42:39;4.30;;;1.40;;
23187;SDS011;11762;59.878;17.686;2023-01-01T13:45:12;5.03;;;1.60;;
23187;SDS011;11762;59.878;17.686;2023-01-01T13:47:47;3.57;;;0.93;;
23187;SDS011;11762;59.878;17.686;2023-01-01T13:50:32;5.63;;;1.53;;
23187;SDS011;11762;59.878;17.686;2023-01-01T14:01:59;4.63;;;1.10;;
23187;SDS011;11762;59.878;17.686;2023-01-01T14:04:38;5.83;;;1.40;;
23187;SDS011;11762;59.878;17.686;2023-01-01T14:07:15;3.27;;;1.07;;
23187;SDS011;11762;59.878;17.686;2023-01-01T14:09:49;6.70;;;1.20;;
23187;SDS011;11762;59.878;17.686;2023-01-01T14:12:18;7.00;;;1.40;;
23187;SDS011;11762;59.878;17.686;2023-01-01T14:14:46;4.37;;;1.60;;
23187;SDS011;11762;59.878;17.686;2023-01-01T14:17:13;6.40;;;1.10;;
23187;SDS011;11762;59.878;17.686;2023-01-01T14:19:41;3.10;;;0.97;;
23187;SDS011;11762;59.878;17.686;2023-01-01T14:22:10;3.63;;;1.43;;
23187;SDS011;11762;59.878;17.686;2023-01-01T14:24:41;3.80;;;1.47;;
23187;SDS011;11762;59.878;17.686;2023-01-01T14:27:13;3.03;;;1.00;;
23187;SDS011;11762;59.878;17.686;2023-01-01T14:29:44;6.67;;;1.60;;
23187;SDS011;11762;59.878;17.686;2023-01-01T14:32:13;6.73;;;1.23;;
23187;SDS011;11762;59.878;17.686;2023-01-01T14:34:46;3.53;;;1.00;;
23187;SDS011;11762;59.878;17.686;2023-01-01T14:37:23;5.17;;;1.17;;
23187;SDS011;11762;59.878;17.686;2023-01-01T14:40:03;6.50;;;1.10;;
23187;SDS011;11762;59.878;17.686;2023-01-01T14:42:32;11.47;;;1.47;;
23187;SDS011;11762;59.878;17.686;2023-01-01T14:45:03;5.60;;;1.30;;
23187;SDS011;11762;59.878;17.686;2023-01-01T14:47:31;3.57;;;1.27;;
23187;SDS011;11762;59.878;17.686;2023-01-01T14:50:01;2.37;;;0.90;;
23187;SDS011;11762;59.878;17.686;2023-01-01T14:52:30;6.67;;;1.53;;
23187;SDS011;11762;59.878;17.686;2023-01-01T14:55:00;3.73;;;1.13;;
23187;SDS011;11762;59.878;17.686;2023-01-01T14:57:30;3.20;;;1.23;;
23187;SDS011;11762;59.878;17.686;2023-01-01T14:59:58;8.50;;;1.17;;
23187;SDS011;11762;59.878;17.686;2023-01-01T15:02:28;6.93;;;1.50;;
23187;SDS011;11762;59.878;17.686;2023-01-01T15:04:57;7.80;;;1.40;;